sensor_id;sensor_type;location;lat;lon;timestamp;pressure;altitude;pressure_sealevel;temperature;humidity
29569;BME280;16501;51.462;14.346;2023-04-15T00:00:29;98956.84;;;7.39;100.00
29569;BME280;16501;51.462;14.346;2023-04-15T00:02:54;98941.81;;;7.36;100.00
29569;BME280;16501;51.462;14.346;2023-04-15T00:05:20;98963.75;;;7.44;100.00
29569;BME280;16501;51.462;14.346;2023-04-15T00:07:45;98942.31;;;7.35;100.00
29569;BME280;16501;51.462;14.346;2023-04-15T00:10:11;98950.28;;;7.42;100.00
29569;BME280;16501;51.462;14.346;2023-04-15T00:12:36;98947.03;;;7.44;100.00
29569;BME280;16501;51.462;14.346;2023-04-15T00:15:02;98936.56;;;7.39;100.00
29569;BME280;16501;51.462;14.346;2023-04-15T00:17:28;98945.56;;;7.48;100.00
29569;BME280;16501;51.462;14.346;2023-04-15T00:19:53;98957.19;;;7.47;100.00
29569;BME280;16501;51.462;14.346;2023-04-15T00:22:18;98958.81;;;7.53;100.00
29569;BME280;16501;51.462;14.346;2023-04-15T00:24:44;98944.25;;;7.44;100.00
29569;BME280;16501;51.462;14.346;2023-04-15T00:27:09;98941.53;;;7.49;100.00
29569;BME280;16501;51.462;14.346;2023-04-15T00:29:35;98940.47;;;7.47;100.00
29569;BME280;16501;51.462;14.346;2023-04-15T00:32:00;98934.31;;;7.43;100.00
29569;BME280;16501;51.462;14.346;2023-04-15T00:34:26;98943.84;;;7.51;100.00
29569;BME280;16501;51.462;14.346;2023-04-15T00:36:53;98946.03;;;7.47;100.00
29569;BME280;16501;51.462;14.346;2023-04-15T00:39:18;98917.50;;;7.37;100.00
29569;BME280;16501;51.462;14.346;2023-04-15T00:41:44;98907.25;;;7.28;100.00
29569;BME280;16501;51.462;14.346;2023-04-15T00:44:10;98934.69;;;7.50;100.00
29569;BME280;16501;51.462;14.346;2023-04-15T00:46:36;98926.78;;;7.49;100.00
29569;BME280;16501;51.462;14.346;2023-04-15T00:49:06;98924.00;;;7.49;100.00
29569;BME280;16501;51.462;14.346;2023-04-15T00:51:32;98944.19;;;7.59;100.00
29569;BME280;16501;51.462;14.346;2023-04-15T00:54:00;98930.72;;;7.57;100.00
29569;BME280;16501;51.462;14.346;2023-04-15T00:56:29;98914.31;;;7.44;100.00
29569;BME280;16501;51.462;14.346;2023-04-15T00:58:56;98920.25;;;7.52;100.00
29569;BME280;16501;51.462;14.346;2023-04-15T01:01:23;98898.56;;;7.41;100.00
29569;BME280;16501;51.462;14.346;2023-04-15T01:03:49;98914.41;;;7.50;100.00
29569;BME280;16501;51.462;14.346;2023-04-15T01:06:15;98920.25;;;7.52;100.00
29569;BME280;16501;51.462;14.346;2023-04-15T01:08:41;98922.34;;;7.57;100.00
29569;BME280;16501;51.462;14.346;2023-04-15T01:11:06;98917.75;;;7.54;100.00
29569;BME280;16501;51.462;14.346;2023-04-15T01:13:32;98927.84;;;7.66;100.00
29569;BME280;16501;51.462;14.346;2023-04-15T01:15:58;98924.53;;;7.68;100.00
29569;BME280;16501;51.462;14.346;2023-04-15T01:18:23;98902.00;;;7.51;100.00
29569;BME280;16501;51.462;14.346;2023-04-15T01:20:48;98915.06;;;7.60;100.00
29569;BME280;16501;51.462;14.346;2023-04-15T01:23:14;98899.50;;;7.53;100.00
29569;BME280;16501;51.462;14.346;2023-04-15T01:25:41;98901.69;;;7.49;100.00
29569;BME280;16501;51.462;14.346;2023-04-15T01:28:07;98900.72;;;7.52;100.00
29569;BME280;16501;51.462;14.346;2023-04-15T01:30:34;98907.66;;;7.57;100.00
29569;BME280;16501;51.462;14.346;2023-04-15T01:32:59;98909.69;;;7.56;100.00
29569;BME280;16501;51.462;14.346;2023-04-15T01:35:25;98910.66;;;7.53;100.00
29569;BME280;16501;51.462;14.346;2023-04-15T01:37:51;98890.66;;;7.40;100.00
29569;BME280;16501;51.462;14.346;2023-04-15T01:40:18;98891.94;;;7.39;100.00
29569;BME280;16501;51.462;14.346;2023-04-15T01:42:43;98920.22;;;7.67;100.00
29569;BME280;16501;51.462;14.346;2023-04-15T01:45:09;98905.56;;;7.51;100.00
29569;BME280;16501;51.462;14.346;2023-04-15T01:47:34;98908.41;;;7.57;100.00
29569;BME280;16501;51.462;14.346;2023-04-15T01:49:59;98914.16;;;7.68;100.00
29569;BME280;16501;51.462;14.346;2023-04-15T01:52:25;98899.56;;;7.59;100.00
29569;BME280;16501;51.462;14.346;2023-04-15T01:54:50;98877.31;;;7.44;100.00
29569;BME280;16501;51.462;14.346;2023-04-15T01:57:16;98909.28;;;7.63;100.00
29569;BME280;16501;51.462;14.346;2023-04-15T01:59:41;98894.19;;;7.55;100.00
29569;BME280;16501;51.462;14.346;2023-04-15T02:02:06;98894.47;;;7.57;100.00
29569;BME280;16501;51.462;14.346;2023-04-15T02:04:32;98862.50;;;7.38;100.00
29569;BME280;16501;51.462;14.346;2023-04-15T02:06:58;98891.75;;;7.63;100.00
29569;BME280;16501;51.462;14.346;2023-04-15T02:09:23;98894.66;;;7.53;100.00
29569;BME280;16501;51.462;14.346;2023-04-15T02:11:50;98898.94;;;7.69;100.00
29569;BME280;16501;51.462;14.346;2023-04-15T02:14:15;98886.59;;;7.55;100.00
29569;BME280;16501;51.462;14.346;2023-04-15T02:16:41;98899.34;;;7.62;100.00
29569;BME280;16501;51.462;14.346;2023-04-15T02:19:06;98881.59;;;7.60;100.00
29569;BME280;16501;51.462;14.346;2023-04-15T02:21:31;98908.59;;;7.68;100.00
29569;BME280;16501;51.462;14.346;2023-04-15T02:23:57;98906.84;;;7.71;100.00
29569;BME280;16501;51.462;14.346;2023-04-15T02:26:22;98920.47;;;7.84;100.00
29569;BME280;16501;51.462;14.346;2023-04-15T02:28:49;98914.09;;;7.83;100.00
29569;BME280;16501;51.462;14.346;2023-04-15T02:31:15;98898.25;;;7.74;100.00
29569;BME280;16501;51.462;14.346;2023-04-15T02:33:41;98907.47;;;7.81;100.00
29569;BME280;16501;51.462;14.346;2023-04-15T02:36:06;98895.19;;;7.72;100.00
29569;BME280;16501;51.462;14.346;2023-04-15T02:38:32;98896.94;;;7.70;100.00
29569;BME280;16501;51.462;14.346;2023-04-15T02:40:57;98901.31;;;7.77;100.00
29569;BME280;16501;51.462;14.346;2023-04-15T02:43:23;98914.88;;;7.84;100.00
29569;BME280;16501;51.462;14.346;2023-04-15T02:45:48;98882.78;;;7.73;100.00
29569;BME280;16501;51.462;14.346;2023-04-15T02:48:16;98896.03;;;7.79;100.00
29569;BME280;16501;51.462;14.346;2023-04-15T02:50:44;98901.63;;;7.79;100.00
29569;BME280;16501;51.462;14.346;2023-04-15T02:53:09;98909.00;;;7.82;100.00
29569;BME280;16501;51.462;14.346;2023-04-15T02:55:35;98899.59;;;7.79;100.00
29569;BME280;16501;51.462;14.346;2023-04-15T02:58:00;98894.50;;;7.78;100.00
29569;BME280;16501;51.462;14.346;2023-04-15T03:00:26;98903.41;;;7.82;100.00
29569;BME280;16501;51.462;14.346;2023-04-15T03:02:57;98910.81;;;7.85;100.00
29569;BME280;16501;51.462;14.346;2023-04-15T03:05:23;98880.53;;;7.78;100.00
29569;BME280;16501;51.462;14.346;2023-04-15T03:07:51;98892.41;;;7.93;100.00
29569;BME280;16501;51.462;14.346;2023-04-15T03:10:17;98886.78;;;7.87;100.00
29569;BME280;16501;51.462;14.346;2023-04-15T03:12:43;98871.19;;;7.81;100.00
29569;BME280;16501;51.462;14.346;2023-04-15T03:15:08;98896.72;;;7.94;100.00
29569;BME280;16501;51.462;14.346;2023-04-15T03:17:34;98895.00;;;7.97;100.00
29569;BME280;16501;51.462;14.346;2023-04-15T03:20:03;98893.38;;;7.90;100.00
29569;BME280;16501;51.462;14.346;2023-04-15T03:22:30;98891.88;;;7.89;100.00
29569;BME280;16501;51.462;14.346;2023-04-15T03:24:56;98889.06;;;7.89;100.00
29569;BME280;16501;51.462;14.346;2023-04-15T03:27:21;98871.91;;;7.76;100.00
29569;BME280;16501;51.462;14.346;2023-04-15T03:29:46;98905.25;;;8.05;100.00
29569;BME280;16501;51.462;14.346;2023-04-15T03:32:12;98897.56;;;8.00;100.00
29569;BME280;16501;51.462;14.346;2023-04-15T03:34:39;98881.03;;;7.97;100.00
29569;BME280;16501;51.462;14.346;2023-04-15T03:37:04;98902.72;;;8.07;100.00
29569;BME280;16501;51.462;14.346;2023-04-15T03:39:29;98849.38;;;7.79;100.00
29569;BME280;16501;51.462;14.346;2023-04-15T03:41:54;98884.66;;;8.03;100.00
29569;BME280;16501;51.462;14.346;2023-04-15T03:44:20;98890.59;;;8.10;100.00
29569;BME280;16501;51.462;14.346;2023-04-15T03:46:45;98890.81;;;8.07;100.00
29569;BME280;16501;51.462;14.346;2023-04-15T03:49:12;98902.31;;;8.15;100.00
29569;BME280;16501;51.462;14.346;2023-04-15T03:51:38;98896.13;;;8.05;100.00
29569;BME280;16501;51.462;14.346;2023-04-15T03:54:03;98904.81;;;8.12;100.00
29569;BME280;16501;51.462;14.346;2023-04-15T03:56:28;98874.22;;;7.98;100.00
29569;BME280;16501;51.462;14.346;2023-04-15T03:58:54;98858.16;;;7.92;100.00
29569;BME280;16501;51.462;14.346;2023-04-15T04:01:19;98843.78;;;7.79;100.00
29569;BME280;16501;51.462;14.346;2023-04-15T04:03:44;98870.91;;;7.99;100.00
29569;BME280;16501;51.462;14.346;2023-04-15T04:06:09;98874.75;;;8.02;100.00
29569;BME280;16501;51.462;14.346;2023-04-15T04:08:36;98885.50;;;8.09;100.00
29569;BME280;16501;51.462;14.346;2023-04-15T04:11:01;98894.41;;;8.13;100.00
29569;BME280;16501;51.462;14.346;2023-04-15T04:13:27;98893.38;;;8.10;100.00
29569;BME280;16501;51.462;14.346;2023-04-15T04:15:52;98895.34;;;8.04;100.00
29569;BME280;16501;51.462;14.346;2023-04-15T04:18:17;98891.03;;;8.03;100.00
29569;BME280;16501;51.462;14.346;2023-04-15T04:20:42;98898.53;;;8.18;100.00
29569;BME280;16501;51.462;14.346;2023-04-15T04:23:08;98883.94;;;8.08;100.00
29569;BME280;16501;51.462;14.346;2023-04-15T04:25:33;98904.81;;;8.12;100.00
29569;BME280;16501;51.462;14.346;2023-04-15T04:27:58;98906.72;;;8.21;100.00
29569;BME280;16501;51.462;14.346;2023-04-15T04:30:23;98906.16;;;8.17;100.00
29569;BME280;16501;51.462;14.346;2023-04-15T04:32:49;98910.25;;;8.22;100.00
29569;BME280;16501;51.462;14.346;2023-04-15T04:35:15;98896.72;;;8.15;100.00
29569;BME280;16501;51.462;14.346;2023-04-15T04:37:40;98892.13;;;8.11;100.00
29569;BME280;16501;51.462;14.346;2023-04-15T04:40:06;98891.28;;;8.05;100.00
29569;BME280;16501;51.462;14.346;2023-04-15T04:42:32;98890.06;;;8.06;100.00
29569;BME280;16501;51.462;14.346;2023-04-15T04:44:57;98897.16;;;8.07;100.00
29569;BME280;16501;51.462;14.346;2023-04-15T04:47:23;98893.13;;;8.08;100.00
29569;BME280;16501;51.462;14.346;2023-04-15T04:49:48;98894.09;;;8.05;100.00
29569;BME280;16501;51.462;14.346;2023-04-15T04:52:13;98904.69;;;8.22;100.00
29569;BME280;16501;51.462;14.346;2023-04-15T04:54:38;98917.38;;;8.23;100.00
29569;BME280;16501;51.462;14.346;2023-04-15T04:57:04;98902.31;;;8.15;100.00
29569;BME280;16501;51.462;14.346;2023-04-15T04:59:29;98891.34;;;8.11;100.00
29569;BME280;16501;51.462;14.346;2023-04-15T05:01:54;98909.00;;;8.23;100.00
29569;BME280;16501;51.462;14.346;2023-04-15T05:04:20;98905.31;;;8.11;100.00
29569;BME280;16501;51.462;14.346;2023-04-15T05:06:45;98903.59;;;8.14;100.00
29569;BME280;16501;51.462;14.346;2023-04-15T05:09:12;98906.66;;;8.16;100.00
29569;BME280;16501;51.462;14.346;2023-04-15T05:11:37;98910.97;;;8.17;100.00
29569;BME280;16501;51.462;14.346;2023-04-15T05:14:02;98918.78;;;8.12;100.00
29569;BME280;16501;51.462;14.346;2023-04-15T05:16:27;98905.81;;;8.09;100.00
29569;BME280;16501;51.462;14.346;2023-04-15T05:18:53;98910.97;;;8.17;100.00
29569;BME280;16501;51.462;14.346;2023-04-15T05:21:18;98916.84;;;8.19;100.00
29569;BME280;16501;51.462;14.346;2023-04-15T05:23:44;98920.34;;;8.14;100.00
29569;BME280;16501;51.462;14.346;2023-04-15T05:26:09;98937.97;;;8.25;100.00
29569;BME280;16501;51.462;14.346;2023-04-15T05:28:35;98893.88;;;8.09;100.00
29569;BME280;16501;51.462;14.346;2023-04-15T05:31:00;98905.81;;;8.09;100.00
29569;BME280;16501;51.462;14.346;2023-04-15T05:33:26;98930.81;;;8.19;100.00
29569;BME280;16501;51.462;14.346;2023-04-15T05:35:51;98928.50;;;8.17;100.00
29569;BME280;16501;51.462;14.346;2023-04-15T05:38:17;98943.38;;;8.29;100.00
29569;BME280;16501;51.462;14.346;2023-04-15T05:40:42;98909.28;;;8.04;100.00
29569;BME280;16501;51.462;14.346;2023-04-15T05:43:07;98943.38;;;8.29;100.00
29569;BME280;16501;51.462;14.346;2023-04-15T05:45:32;98926.75;;;8.20;100.00
29569;BME280;16501;51.462;14.346;2023-04-15T05:47:58;98941.75;;;8.22;100.00
29569;BME280;16501;51.462;14.346;2023-04-15T05:50:23;98934.63;;;8.21;100.00
29569;BME280;16501;51.462;14.346;2023-04-15T05:52:48;98910.34;;;8.07;100.00
29569;BME280;16501;51.462;14.346;2023-04-15T05:55:13;98936.94;;;8.23;100.00
29569;BME280;16501;51.462;14.346;2023-04-15T05:57:39;98947.63;;;8.24;100.00
29569;BME280;16501;51.462;14.346;2023-04-15T06:00:05;98945.59;;;8.25;100.00
29569;BME280;16501;51.462;14.346;2023-04-15T06:02:30;98948.97;;;8.29;100.00
29569;BME280;16501;51.462;14.346;2023-04-15T06:04:56;98971.56;;;8.31;100.00
29569;BME280;16501;51.462;14.346;2023-04-15T06:07:22;98973.19;;;8.38;100.00
29569;BME280;16501;51.462;14.346;2023-04-15T06:09:47;98943.75;;;8.22;100.00
29569;BME280;16501;51.462;14.346;2023-04-15T06:12:12;98959.91;;;8.33;100.00
29569;BME280;16501;51.462;14.346;2023-04-15T06:14:38;98977.00;;;8.40;100.00
29569;BME280;16501;51.462;14.346;2023-04-15T06:17:04;98980.78;;;8.37;100.00
29569;BME280;16501;51.462;14.346;2023-04-15T06:19:29;98979.47;;;8.33;100.00
29569;BME280;16501;51.462;14.346;2023-04-15T06:21:56;98968.41;;;8.23;100.00
29569;BME280;16501;51.462;14.346;2023-04-15T06:24:22;98963.88;;;8.26;100.00
29569;BME280;16501;51.462;14.346;2023-04-15T06:26:47;98966.59;;;8.20;100.00
29569;BME280;16501;51.462;14.346;2023-04-15T06:29:12;98979.66;;;8.29;100.00
29569;BME280;16501;51.462;14.346;2023-04-15T06:31:38;98988.47;;;8.42;100.00
29569;BME280;16501;51.462;14.346;2023-04-15T06:34:03;98972.53;;;8.28;100.00
29569;BME280;16501;51.462;14.346;2023-04-15T06:36:28;98967.94;;;8.25;100.00
29569;BME280;16501;51.462;14.346;2023-04-15T06:38:54;98986.16;;;8.41;100.00
29569;BME280;16501;51.462;14.346;2023-04-15T06:41:20;98982.31;;;8.38;100.00
29569;BME280;16501;51.462;14.346;2023-04-15T06:43:45;98982.53;;;8.35;100.00
29569;BME280;16501;51.462;14.346;2023-04-15T06:46:11;98980.75;;;8.17;100.00
29569;BME280;16501;51.462;14.346;2023-04-15T06:48:36;98995.63;;;8.28;100.00
29569;BME280;16501;51.462;14.346;2023-04-15T06:51:02;98968.75;;;8.10;100.00
29569;BME280;16501;51.462;14.346;2023-04-15T06:53:28;98994.34;;;8.24;100.00
29569;BME280;16501;51.462;14.346;2023-04-15T06:55:53;99002.00;;;8.29;100.00
29569;BME280;16501;51.462;14.346;2023-04-15T06:58:18;98980.47;;;8.15;100.00
29569;BME280;16501;51.462;14.346;2023-04-15T07:00:43;98999.97;;;8.29;100.00
29569;BME280;16501;51.462;14.346;2023-04-15T07:03:11;99006.81;;;8.28;100.00
29569;BME280;16501;51.462;14.346;2023-04-15T07:05:37;99020.56;;;8.32;100.00
29569;BME280;16501;51.462;14.346;2023-04-15T07:08:03;99006.38;;;8.36;100.00
29569;BME280;16501;51.462;14.346;2023-04-15T07:10:28;99011.28;;;8.41;100.00
29569;BME280;16501;51.462;14.346;2023-04-15T07:12:54;99038.81;;;8.48;100.00
29569;BME280;16501;51.462;14.346;2023-04-15T07:15:19;99029.72;;;8.33;100.00
29569;BME280;16501;51.462;14.346;2023-04-15T07:17:44;99030.63;;;8.24;100.00
29569;BME280;16501;51.462;14.346;2023-04-15T07:20:10;99052.66;;;8.22;100.00
29569;BME280;16501;51.462;14.346;2023-04-15T07:22:37;99031.22;;;8.13;100.00
29569;BME280;16501;51.462;14.346;2023-04-15T07:25:02;99018.56;;;7.97;100.00
29569;BME280;16501;51.462;14.346;2023-04-15T07:27:28;99042.72;;;8.00;100.00
29569;BME280;16501;51.462;14.346;2023-04-15T07:29:53;99023.72;;;7.84;100.00
29569;BME280;16501;51.462;14.346;2023-04-15T07:32:18;99025.50;;;7.87;100.00
29569;BME280;16501;51.462;14.346;2023-04-15T07:34:43;99050.13;;;8.03;100.00
29569;BME280;16501;51.462;14.346;2023-04-15T07:37:09;99032.69;;;8.08;100.00
29569;BME280;16501;51.462;14.346;2023-04-15T07:39:34;99049.06;;;8.01;100.00
29569;BME280;16501;51.462;14.346;2023-04-15T07:41:59;99045.09;;;8.07;100.00
29569;BME280;16501;51.462;14.346;2023-04-15T07:44:26;99047.28;;;8.18;100.00
29569;BME280;16501;51.462;14.346;2023-04-15T07:46:51;99025.41;;;7.96;100.00
29569;BME280;16501;51.462;14.346;2023-04-15T07:49:16;99052.53;;;8.10;100.00
29569;BME280;16501;51.462;14.346;2023-04-15T07:51:43;99070.78;;;8.11;100.00
29569;BME280;16501;51.462;14.346;2023-04-15T07:54:08;99045.84;;;7.87;100.00
29569;BME280;16501;51.462;14.346;2023-04-15T07:56:34;99071.13;;;7.99;100.00
29569;BME280;16501;51.462;14.346;2023-04-15T07:58:59;99077.47;;;7.99;100.00
29569;BME280;16501;51.462;14.346;2023-04-15T08:01:26;99081.25;;;7.96;100.00
29569;BME280;16501;51.462;14.346;2023-04-15T08:03:51;99089.91;;;7.98;100.00
29569;BME280;16501;51.462;14.346;2023-04-15T08:06:17;99054.31;;;7.78;100.00
29569;BME280;16501;51.462;14.346;2023-04-15T08:08:42;99047.88;;;7.72;100.00
29569;BME280;16501;51.462;14.346;2023-04-15T08:11:08;99077.97;;;7.98;100.00
29569;BME280;16501;51.462;14.346;2023-04-15T08:13:33;99075.94;;;7.98;100.00
29569;BME280;16501;51.462;14.346;2023-04-15T08:18:42;99086.50;;;8.09;100.00
29569;BME280;16501;51.462;14.346;2023-04-15T08:21:09;99069.78;;;7.94;100.00
29569;BME280;16501;51.462;14.346;2023-04-15T08:23:34;99067.66;;;8.04;100.00
29569;BME280;16501;51.462;14.346;2023-04-15T08:26:00;99098.91;;;8.23;100.00
29569;BME280;16501;51.462;14.346;2023-04-15T08:28:25;99082.75;;;8.12;100.00
29569;BME280;16501;51.462;14.346;2023-04-15T08:30:51;99094.75;;;8.18;100.00
29569;BME280;16501;51.462;14.346;2023-04-15T08:33:16;99092.97;;;8.00;100.00
29569;BME280;16501;51.462;14.346;2023-04-15T08:35:42;99108.22;;;8.20;100.00
29569;BME280;16501;51.462;14.346;2023-04-15T08:38:07;99091.81;;;8.07;100.00
29569;BME280;16501;51.462;14.346;2023-04-15T08:40:40;99114.22;;;8.12;100.00
29569;BME280;16501;51.462;14.346;2023-04-15T08:43:09;99112.19;;;8.13;100.00
29569;BME280;16501;51.462;14.346;2023-04-15T08:45:37;99133.28;;;8.14;100.00
29569;BME280;16501;51.462;14.346;2023-04-15T08:48:04;99142.34;;;8.24;100.00
29569;BME280;16501;51.462;14.346;2023-04-15T08:50:30;99117.28;;;8.15;100.00
29569;BME280;16501;51.462;14.346;2023-04-15T08:52:58;99130.28;;;8.18;100.00
29569;BME280;16501;51.462;14.346;2023-04-15T08:55:28;99117.78;;;8.13;100.00
29569;BME280;16501;51.462;14.346;2023-04-15T08:57:55;99132.69;;;8.25;100.00
29569;BME280;16501;51.462;14.346;2023-04-15T09:00:21;99095.75;;;8.00;100.00
29569;BME280;16501;51.462;14.346;2023-04-15T09:02:46;99138.47;;;8.21;100.00
29569;BME280;16501;51.462;14.346;2023-04-15T09:05:12;99147.78;;;8.33;100.00
29569;BME280;16501;51.462;14.346;2023-04-15T09:07:37;99158.41;;;8.29;100.00
29569;BME280;16501;51.462;14.346;2023-04-15T09:10:03;99159.44;;;8.31;100.00
29569;BME280;16501;51.462;14.346;2023-04-15T09:12:28;99171.75;;;8.40;100.00
29569;BME280;16501;51.462;14.346;2023-04-15T09:14:54;99172.53;;;8.40;100.00
29569;BME280;16501;51.462;14.346;2023-04-15T09:17:19;99151.28;;;8.28;100.00
29569;BME280;16501;51.462;14.346;2023-04-15T09:19:45;99169.66;;;8.35;100.00
29569;BME280;16501;51.462;14.346;2023-04-15T09:22:11;99163.19;;;8.28;100.00
29569;BME280;16501;51.462;14.346;2023-04-15T09:24:38;99170.63;;;8.31;100.00
29569;BME280;16501;51.462;14.346;2023-04-15T09:27:05;99163.13;;;8.23;100.00
29569;BME280;16501;51.462;14.346;2023-04-15T09:29:30;99159.97;;;8.00;100.00
29569;BME280;16501;51.462;14.346;2023-04-15T09:32:08;99161.19;;;7.99;100.00
29569;BME280;16501;51.462;14.346;2023-04-15T09:34:36;99173.16;;;7.85;100.00
29569;BME280;16501;51.462;14.346;2023-04-15T09:37:02;99169.41;;;7.88;100.00
29569;BME280;16501;51.462;14.346;2023-04-15T09:39:44;99167.94;;;7.78;100.00
29569;BME280;16501;51.462;14.346;2023-04-15T09:42:09;99174.97;;;7.88;100.00
29569;BME280;16501;51.462;14.346;2023-04-15T09:44:35;99186.06;;;7.82;100.00
29569;BME280;16501;51.462;14.346;2023-04-15T09:47:01;99177.28;;;7.74;100.00
29569;BME280;16501;51.462;14.346;2023-04-15T09:49:26;99159.41;;;7.66;100.00
29569;BME280;16501;51.462;14.346;2023-04-15T09:51:57;99168.63;;;7.72;100.00
29569;BME280;16501;51.462;14.346;2023-04-15T09:54:22;99202.69;;;7.77;100.00
29569;BME280;16501;51.462;14.346;2023-04-15T09:56:48;99199.34;;;7.87;100.00
29569;BME280;16501;51.462;14.346;2023-04-15T09:59:13;99169.66;;;7.60;100.00
29569;BME280;16501;51.462;14.346;2023-04-15T10:01:40;99191.81;;;7.79;100.00
29569;BME280;16501;51.462;14.346;2023-04-15T10:04:07;99203.28;;;7.81;100.00
29569;BME280;16501;51.462;14.346;2023-04-15T10:06:33;99196.34;;;7.76;100.00
29569;BME280;16501;51.462;14.346;2023-04-15T10:08:59;99214.63;;;7.92;100.00
29569;BME280;16501;51.462;14.346;2023-04-15T10:11:28;99201.34;;;7.87;100.00
29569;BME280;16501;51.462;14.346;2023-04-15T10:13:54;99212.13;;;7.94;100.00
29569;BME280;16501;51.462;14.346;2023-04-15T10:16:20;99208.47;;;7.88;100.00
29569;BME280;16501;51.462;14.346;2023-04-15T10:18:52;99223.28;;;7.94;100.00
29569;BME280;16501;51.462;14.346;2023-04-15T10:21:19;99223.50;;;8.05;100.00
29569;BME280;16501;51.462;14.346;2023-04-15T10:23:47;99226.00;;;8.03;100.00
29569;BME280;16501;51.462;14.346;2023-04-15T10:26:13;99222.94;;;8.01;100.00
29569;BME280;16501;51.462;14.346;2023-04-15T10:28:40;99221.94;;;8.04;100.00
29569;BME280;16501;51.462;14.346;2023-04-15T10:31:06;99185.88;;;7.86;100.00
29569;BME280;16501;51.462;14.346;2023-04-15T10:33:32;99219.16;;;8.04;100.00
29569;BME280;16501;51.462;14.346;2023-04-15T10:35:58;99233.03;;;8.14;100.00
29569;BME280;16501;51.462;14.346;2023-04-15T10:38:41;99205.97;;;7.90;100.00
29569;BME280;16501;51.462;14.346;2023-04-15T10:41:21;99232.63;;;8.06;100.00
29569;BME280;16501;51.462;14.346;2023-04-15T10:43:55;99236.59;;;8.29;100.00
29569;BME280;16501;51.462;14.346;2023-04-15T10:46:41;99244.28;;;8.34;100.00
29569;BME280;16501;51.462;14.346;2023-04-15T10:49:12;99251.34;;;8.44;100.00
29569;BME280;16501;51.462;14.346;2023-04-15T10:51:40;99229.34;;;8.37;100.00
29569;BME280;16501;51.462;14.346;2023-04-15T10:54:15;99252.50;;;8.53;100.00
29569;BME280;16501;51.462;14.346;2023-04-15T10:56:43;99243.31;;;8.37;100.00
29569;BME280;16501;51.462;14.346;2023-04-15T10:59:08;99225.72;;;8.31;100.00
29569;BME280;16501;51.462;14.346;2023-04-15T11:01:53;99241.78;;;8.36;100.00
29569;BME280;16501;51.462;14.346;2023-04-15T11:04:55;99257.50;;;8.48;100.00
29569;BME280;16501;51.462;14.346;2023-04-15T11:12:57;99252.59;;;8.43;100.00
29569;BME280;16501;51.462;14.346;2023-04-15T11:17:55;99285.91;;;8.62;100.00
29569;BME280;16501;51.462;14.346;2023-04-15T11:20:21;99281.09;;;8.47;100.00
29569;BME280;16501;51.462;14.346;2023-04-15T11:22:50;99287.19;;;8.61;100.00
29569;BME280;16501;51.462;14.346;2023-04-15T11:27:47;99297.38;;;8.64;100.00
29569;BME280;16501;51.462;14.346;2023-04-15T11:30:21;99284.78;;;8.54;100.00
29569;BME280;16501;51.462;14.346;2023-04-15T11:32:48;99277.56;;;8.47;100.00
29569;BME280;16501;51.462;14.346;2023-04-15T11:35:13;99287.25;;;8.52;100.00
29569;BME280;16501;51.462;14.346;2023-04-15T11:37:40;99307.91;;;8.69;100.00
29569;BME280;16501;51.462;14.346;2023-04-15T11:40:07;99294.97;;;8.57;100.00
29569;BME280;16501;51.462;14.346;2023-04-15T11:42:32;99311.38;;;8.64;100.00
29569;BME280;16501;51.462;14.346;2023-04-15T11:45:18;99308.56;;;8.64;100.00
29569;BME280;16501;51.462;14.346;2023-04-15T11:47:43;99300.56;;;8.57;100.00
29569;BME280;16501;51.462;14.346;2023-04-15T11:50:19;99300.56;;;8.57;100.00
29569;BME280;16501;51.462;14.346;2023-04-15T11:53:12;99316.63;;;8.62;100.00
29569;BME280;16501;51.462;14.346;2023-04-15T11:55:41;99296.50;;;8.58;100.00
29569;BME280;16501;51.462;14.346;2023-04-15T11:58:15;99322.16;;;8.71;100.00
29569;BME280;16501;51.462;14.346;2023-04-15T12:00:50;99297.75;;;8.57;100.00
29569;BME280;16501;51.462;14.346;2023-04-15T12:03:24;99314.81;;;8.74;100.00
29569;BME280;16501;51.462;14.346;2023-04-15T12:11:50;99302.88;;;8.73;100.00
29569;BME280;16501;51.462;14.346;2023-04-15T12:14:27;99313.66;;;8.80;100.00
29569;BME280;16501;51.462;14.346;2023-04-15T12:16:55;99301.88;;;8.91;100.00
29569;BME280;16501;51.462;14.346;2023-04-15T12:19:42;99327.56;;;9.10;100.00
29569;BME280;16501;51.462;14.346;2023-04-15T12:22:14;99317.28;;;9.01;100.00
29569;BME280;16501;51.462;14.346;2023-04-15T12:24:41;99333.72;;;9.14;100.00
29569;BME280;16501;51.462;14.346;2023-04-15T12:27:10;99324.22;;;8.91;100.00
29569;BME280;16501;51.462;14.346;2023-04-15T12:29:36;99337.59;;;9.02;100.00
29569;BME280;16501;51.462;14.346;2023-04-15T12:32:04;99344.63;;;9.12;100.00
29569;BME280;16501;51.462;14.346;2023-04-15T12:34:31;99324.81;;;8.95;100.00
29569;BME280;16501;51.462;14.346;2023-04-15T12:36:59;99353.19;;;9.23;100.00
29569;BME280;16501;51.462;14.346;2023-04-15T12:39:26;99343.25;;;9.22;100.00
29569;BME280;16501;51.462;14.346;2023-04-15T12:41:52;99333.81;;;9.20;100.00
29569;BME280;16501;51.462;14.346;2023-04-15T12:44:18;99357.69;;;9.36;100.00
29569;BME280;16501;51.462;14.346;2023-04-15T12:46:44;99358.66;;;9.33;100.00
29569;BME280;16501;51.462;14.346;2023-04-15T12:49:10;99354.31;;;9.32;100.00
29569;BME280;16501;51.462;14.346;2023-04-15T12:51:35;99360.50;;;9.36;100.00
29569;BME280;16501;51.462;14.346;2023-04-15T12:54:00;99352.72;;;9.25;100.00
29569;BME280;16501;51.462;14.346;2023-04-15T12:56:26;99359.91;;;9.32;100.00
29569;BME280;16501;51.462;14.346;2023-04-15T12:58:51;99358.25;;;9.40;100.00
29569;BME280;16501;51.462;14.346;2023-04-15T13:01:17;99372.56;;;9.62;100.00
29569;BME280;16501;51.462;14.346;2023-04-15T13:03:43;99349.13;;;9.60;100.00
29569;BME280;16501;51.462;14.346;2023-04-15T13:06:08;99384.91;;;9.91;100.00